Terminal Aerodrome Forecast
Issued by NWS Spokane, WA

Home | Current Version | Previous Version | Text Only | Print | Product List | Glossary On
Versions: 1 2 3 4 5 6 7 8 9 10 11 12 13 14 15 16 17 18
000
FTUS46 KOTX 231737
TAFGEG
TAF
KGEG 231737Z 2318/2418 21016KT P6SM SCT022 BKN090 OVC130
     FM232000 22014G20KT P6SM VCSH BKN025 BKN080
     FM240100 21012G18KT P6SM -SHRA BKN030 BKN080 OVC120
     FM240800 20011KT P6SM BKN040 OVC050
     FM241500 19012KT P6SM VCSH OVC025=

USA.gov is the U.S. government's official web portal to all federal, state and local government web resources and services.